Primrose, Nebraska
Current Conditions -  °F | °C
As of 12:55 AM on Friday 28 Nov 2014 (Local Time) from KBVN Reporting Station
Scattered Clouds Scattered Clouds  
Wind Chill: -10°   Ceiling: Unl
Heat Index: -6°   Visibility: 10mi
Dew Point: -9°   Wind: 6mph
Humidity: 83%   Direction: 130°SE
Pressure: 29.96"   Gusts: NA
Location:  41.62°N, 98.24°W
Report Text: KBVN 280655Z AUTO 13005KT 10SM SCT110 M06/M09 A2996 RMK AO2 T10611086
Loading
Personal Weather Stations






























Interactive Weather Map New forecast layout! Learn more

10-Day Weather Forecast

Advertisements
Track Severe Weather on mobile